Time;durP1;ratioP1;P1;durP2;ratioP2;P2;SDS_P1;SDS_P2;PMS_P1;PMS_P2;Temp;Humidity;BMP_temperature;BMP_pressure;BME280_temperature;BME280_humidity;BME280_pressure;Samples;Min_cycle;Max_cycle;Signal;HPM_P1;HPM_P2
2022/08/16 00:01:25;;;;;;;18.17;16.47;;;;;;;20.85;94.21;100557.88;4954957;28;20856;-78
2022/08/16 00:03:51;;;;;;;17.67;15.97;;;;;;;20.86;93.79;100556.97;4965834;28;20900;-77
2022/08/16 00:06:17;;;;;;;17.47;15.87;;;;;;;20.87;93.71;100563.06;4987053;28;20208;-78
2022/08/16 00:08:42;;;;;;;17.27;15.53;;;;;;;20.88;93.54;100556.94;4969168;28;20651;-78
2022/08/16 00:11:09;;;;;;;18.50;16.70;;;;;;;20.84;94.32;100552.72;4982864;28;20208;-78
2022/08/16 00:13:35;;;;;;;18.93;17.13;;;;;;;20.80;94.94;100556.28;4977815;28;20220;-78
2022/08/16 00:16:01;;;;;;;19.77;17.77;;;;;;;20.77;95.22;100551.19;4979639;28;20227;-78
2022/08/16 00:18:26;;;;;;;20.77;16.77;;;;;;;20.75;95.28;100548.63;4978279;28;20212;-78
2022/08/16 00:20:52;;;;;;;18.40;16.23;;;;;;;20.80;94.51;100536.34;4970345;28;20243;-79
2022/08/16 00:23:18;;;;;;;18.60;15.97;;;;;;;20.79;94.67;100537.22;4975747;28;20283;-79
2022/08/16 00:25:43;;;;;;;19.37;17.17;;;;;;;20.74;95.08;100540.84;4982852;28;20197;-79
2022/08/16 00:28:09;;;;;;;18.73;16.93;;;;;;;20.75;95.39;100540.81;4966474;28;20192;-78
2022/08/16 00:30:35;;;;;;;19.07;17.17;;;;;;;20.80;95.17;100544.16;4952865;28;20457;-78
2022/08/16 00:33:01;;;;;;;18.07;16.40;;;;;;;20.80;95.39;100546.75;4969225;28;20193;-78
2022/08/16 00:35:31;;;;;;;17.70;16.00;;;;;;;20.80;94.77;100564.97;4986068;28;20184;-77
2022/08/16 00:37:57;;;;;;;19.07;17.07;;;;;;;20.76;95.18;100562.47;4970495;28;20239;-79
2022/08/16 00:40:33;;;;;;;19.00;17.10;;;;;;;20.72;95.33;100572.13;4982587;28;20212;-78
2022/08/16 00:42:59;;;;;;;19.60;17.57;;;;;;;20.69;95.22;100572.19;4975665;28;20215;-79
2022/08/16 00:45:40;;;;;;;18.93;17.03;;;;;;;20.61;95.71;100574.16;4989530;28;20192;-78
2022/08/16 00:48:10;;;;;;;20.33;18.33;;;;;;;20.65;95.40;100574.94;4951011;28;20215;-79
2022/08/16 00:50:38;;;;;;;20.40;18.30;;;;;;;20.65;95.14;100574.94;4970234;28;20202;-79
2022/08/16 00:53:06;;;;;;;20.40;18.17;;;;;;;20.62;95.24;100575.84;4964047;28;20188;-79
2022/08/16 00:55:36;;;;;;;20.93;18.63;;;;;;;20.60;95.66;100571.59;4976188;28;20207;-80
2022/08/16 00:58:02;;;;;;;19.67;17.83;;;;;;;20.63;95.54;100571.53;4943233;28;20758;-80
2022/08/16 01:00:31;;;;;;;20.33;17.90;;;;;;;20.65;94.91;100567.13;4959557;28;20228;-79
2022/08/16 01:02:59;;;;;;;21.43;19.23;;;;;;;20.61;95.49;100575.91;4985391;28;20200;-79
2022/08/16 01:05:26;;;;;;;20.40;18.40;;;;;;;20.62;95.71;100586.28;4985078;28;20335;-78
2022/08/16 01:07:56;;;;;;;22.50;20.20;;;;;;;20.57;95.84;100592.47;4971394;28;20203;-80
2022/08/16 01:10:24;;;;;;;21.67;19.37;;;;;;;20.58;95.90;100586.38;4960153;28;20180;-78
2022/08/16 01:12:50;;;;;;;21.97;19.57;;;;;;;20.59;96.19;100594.16;4971142;28;20228;-79
2022/08/16 01:15:16;;;;;;;20.90;18.57;;;;;;;20.58;96.14;100583.75;4974983;28;20188;-78
2022/08/16 01:17:45;;;;;;;21.00;18.87;;;;;;;20.57;96.30;100582.06;4985859;28;20184;-79
2022/08/16 01:20:13;;;;;;;21.53;19.43;;;;;;;20.57;96.23;100582.06;4960769;28;20243;-78
2022/08/16 01:22:45;;;;;;;20.60;18.40;;;;;;;20.58;96.35;100579.44;4981748;28;20299;-78
2022/08/16 01:25:17;;;;;;;20.93;18.83;;;;;;;20.59;95.86;100577.69;4987126;28;20196;-79
2022/08/16 01:27:48;;;;;;;21.53;19.30;;;;;;;20.61;95.88;100581.97;4974252;28;20260;-79
2022/08/16 01:30:22;;;;;;;21.83;19.53;;;;;;;20.60;96.10;100587.19;4968414;28;20193;-78
2022/08/16 01:32:53;;;;;;;21.20;18.97;;;;;;;20.58;96.46;100594.19;4989020;28;20954;-79
2022/08/16 01:35:49;;;;;;;21.03;18.93;;;;;;;20.60;95.88;100598.44;4987571;28;20184;-79
2022/08/16 01:38:26;;;;;;;20.97;18.87;;;;;;;20.60;95.58;100595.84;4968265;28;20740;-79
2022/08/16 01:40:56;;;;;;;21.70;19.67;;;;;;;20.60;95.91;100590.63;4970083;28;20267;-79
2022/08/16 01:43:23;;;;;;;22.43;20.00;;;;;;;20.59;95.95;100590.72;4994106;28;20200;-79
2022/08/16 01:45:55;;;;;;;21.13;19.03;;;;;;;20.51;96.32;100585.69;4974246;28;20180;-79
2022/08/16 01:48:24;;;;;;;23.60;19.50;;;;;;;20.54;96.20;100584.75;4966086;28;20200;-79
2022/08/16 01:50:51;;;;;;;20.97;18.97;;;;;;;20.55;96.10;100589.91;4952843;28;20184;-78
2022/08/16 01:53:16;;;;;;;20.83;18.83;;;;;;;20.55;96.32;100589.91;4974699;28;20551;-78
2022/08/16 01:56:00;;;;;;;22.17;19.87;;;;;;;20.54;96.10;100593.41;4985107;28;20195;-79
2022/08/16 01:58:29;;;;;;;21.07;18.80;;;;;;;20.51;96.25;100588.31;4977488;28;20204;-78
2022/08/16 02:00:54;;;;;;;22.40;20.00;;;;;;;20.50;96.11;100591.78;4970423;28;20725;-78
2022/08/16 02:03:20;;;;;;;22.40;20.30;;;;;;;20.47;96.28;100586.66;4987026;28;20357;-80
2022/08/16 02:05:46;;;;;;;23.07;20.77;;;;;;;20.46;96.65;100592.72;4943450;28;20188;-79
2022/08/16 02:08:11;;;;;;;23.97;21.57;;;;;;;20.44;96.74;100586.72;4979806;28;20597;-78
2022/08/16 02:10:37;;;;;;;23.87;21.67;;;;;;;20.44;96.66;100585.84;4955205;28;20177;-78
2022/08/16 02:13:05;;;;;;;24.90;22.47;;;;;;;20.45;96.74;100592.81;4966598;28;20299;-78
2022/08/16 02:15:33;;;;;;;24.87;22.47;;;;;;;20.45;96.27;100598.84;4979138;28;20184;-78
2022/08/16 02:18:00;;;;;;;22.77;20.67;;;;;;;20.46;96.06;100594.50;4971224;28;20671;-78
2022/08/16 02:20:32;;;;;;;23.23;21.00;;;;;;;20.45;96.09;100591.03;4955447;28;20295;-79
2022/08/16 02:22:59;;;;;;;22.57;20.17;;;;;;;20.45;96.39;100587.59;4959053;28;20200;-79
2022/08/16 02:25:26;;;;;;;23.57;21.33;;;;;;;20.46;96.20;100594.50;4983145;28;20229;-78
2022/08/16 02:27:52;;;;;;;24.30;21.90;;;;;;;20.44;96.04;100586.72;4972471;28;20208;-78
2022/08/16 02:30:27;;;;;;;24.37;21.43;;;;;;;20.41;96.29;100592.00;4954468;28;20192;-78
2022/08/16 02:32:53;;;;;;;25.37;22.10;;;;;;;20.39;96.21;100590.31;4981688;28;20211;-79
2022/08/16 02:35:21;;;;;;;25.37;22.87;;;;;;;20.42;96.02;100590.25;4957412;28;20183;-78
2022/08/16 02:37:46;;;;;;;25.20;22.70;;;;;;;20.40;96.26;100590.28;4980894;28;20277;-79
2022/08/16 02:40:15;;;;;;;25.10;22.77;;;;;;;20.39;96.66;100587.72;4976973;28;20263;-78
2022/08/16 02:42:44;;;;;;;25.60;22.93;;;;;;;20.38;96.52;100593.81;4983460;28;20231;-78
2022/08/16 02:45:11;;;;;;;25.10;22.77;;;;;;;20.31;96.73;100595.72;4978364;28;20277;-78
2022/08/16 02:47:36;;;;;;;24.37;21.83;;;;;;;20.32;96.77;100597.41;4976957;28;20255;-78
2022/08/16 02:50:03;;;;;;;25.00;22.43;;;;;;;20.31;96.75;100600.09;4986314;28;20224;-79
2022/08/16 02:52:28;;;;;;;25.77;23.13;;;;;;;20.24;97.26;100601.09;4975066;28;20212;-79
2022/08/16 02:54:57;;;;;;;25.63;23.13;;;;;;;20.22;97.28;100598.53;4958374;28;20193;-79
2022/08/16 02:57:24;;;;;;;24.83;22.37;;;;;;;20.23;96.78;100597.63;4972886;28;20203;-79
2022/08/16 02:59:49;;;;;;;24.60;22.20;;;;;;;20.20;96.58;100594.25;4971025;28;20222;-78
2022/08/16 03:02:16;;;;;;;25.17;22.67;;;;;;;20.19;97.00;100597.75;4963989;28;20216;-78
2022/08/16 03:04:42;;;;;;;25.07;22.50;;;;;;;20.16;97.24;100593.50;4989143;28;20200;-78
2022/08/16 03:07:09;;;;;;;25.27;22.83;;;;;;;20.16;97.07;100601.28;4981071;28;20200;-78
2022/08/16 03:09:44;;;;;;;23.90;21.47;;;;;;;20.18;97.07;100589.09;4990040;28;20192;-78
2022/08/16 03:12:13;;;;;;;26.23;23.40;;;;;;;20.14;97.08;100586.63;4976287;28;20299;-78
2022/08/16 03:14:39;;;;;;;26.80;24.00;;;;;;;20.11;97.59;100584.06;4978683;28;20184;-78
2022/08/16 03:17:05;;;;;;;25.60;22.93;;;;;;;20.11;97.31;100589.28;4989523;28;20241;-78
2022/08/16 03:19:36;;;;;;;27.80;25.03;;;;;;;20.04;97.76;100592.91;4990130;28;20200;-78
2022/08/16 03:22:02;;;;;;;25.97;23.47;;;;;;;20.06;97.73;100591.09;4964079;28;20271;-79
2022/08/16 03:24:28;;;;;;;24.87;22.47;;;;;;;20.04;97.77;100592.91;4988696;28;20240;-78
2022/08/16 03:26:58;;;;;;;26.13;23.50;;;;;;;20.03;97.61;100589.44;4978306;28;20668;-77
2022/08/16 03:29:28;;;;;;;28.83;26.00;;;;;;;19.96;97.79;100593.06;4985584;28;20223;-78
2022/08/16 03:31:54;;;;;;;29.30;26.23;;;;;;;19.92;98.53;100590.56;4959720;28;20209;-78
2022/08/16 03:34:20;;;;;;;28.77;25.83;;;;;;;19.91;98.68;100584.53;4992628;28;20180;-78
2022/08/16 03:36:46;;;;;;;29.30;26.20;;;;;;;19.90;98.58;100588.00;4988194;28;20193;-78
2022/08/16 03:39:12;;;;;;;28.40;25.23;;;;;;;19.89;98.50;100585.41;4985271;28;20213;-77
2022/08/16 03:41:40;;;;;;;28.77;25.80;;;;;;;19.89;98.67;100590.63;4961438;28;20792;-78
2022/08/16 03:44:06;;;;;;;28.93;26.10;;;;;;;19.91;97.98;100579.31;4976640;28;20196;-78
2022/08/16 03:46:35;;;;;;;26.70;24.13;;;;;;;19.92;97.71;100573.22;4970363;28;20184;-78
2022/08/16 03:49:02;;;;;;;27.27;24.53;;;;;;;19.94;97.74;100571.44;4978193;28;20280;-78
2022/08/16 03:51:27;;;;;;;28.13;25.30;;;;;;;19.89;98.16;100572.41;4970598;28;20204;-78
2022/08/16 03:53:59;;;;;;;27.80;25.03;;;;;;;19.85;98.77;100579.44;4981013;28;20187;-78
2022/08/16 03:56:26;;;;;;;30.13;27.07;;;;;;;19.78;99.42;100585.69;4976582;28;20256;-78
2022/08/16 03:58:55;;;;;;;29.83;26.70;;;;;;;19.79;99.19;100590.00;4970618;28;20211;-78
2022/08/16 04:01:26;;;;;;;29.73;26.67;;;;;;;19.79;99.30;100591.72;4971576;28;20228;-79
2022/08/16 04:03:55;;;;;;;30.00;26.90;;;;;;;19.77;99.38;100594.34;4988569;28;20192;-78
2022/08/16 04:06:24;;;;;;;29.77;26.83;;;;;;;19.77;99.36;100601.31;4968807;28;20195;-80
2022/08/16 04:08:50;;;;;;;30.87;27.73;;;;;;;19.75;99.30;100598.72;4967646;28;20188;-78
2022/08/16 04:11:16;;;;;;;30.33;27.43;;;;;;;19.76;99.39;100603.03;4973664;28;20270;-79
2022/08/16 04:13:42;;;;;;;29.40;26.50;;;;;;;19.77;99.34;100606.50;4974023;28;20437;-77
2022/08/16 04:16:10;;;;;;;29.40;26.50;;;;;;;19.79;99.17;100617.72;4977542;28;20188;-78
2022/08/16 04:18:37;;;;;;;30.37;27.27;;;;;;;19.79;98.69;100615.09;4980316;28;20555;-78
2022/08/16 04:21:04;;;;;;;31.63;28.33;;;;;;;19.77;99.60;100603.91;4981598;28;20706;-77
2022/08/16 04:23:33;;;;;;;32.03;28.73;;;;;;;19.76;99.01;100613.44;4968985;28;20284;-78
2022/08/16 04:25:58;;;;;;;28.87;25.77;;;;;;;19.78;99.21;100618.59;4963335;28;20189;-77
2022/08/16 04:28:25;;;;;;;29.93;27.10;;;;;;;19.74;99.34;100617.81;4982904;28;20220;-80
2022/08/16 04:30:51;;;;;;;34.07;27.30;;;;;;;19.75;99.50;100621.25;4966371;28;20208;-78
2022/08/16 04:33:19;;;;;;;30.33;27.20;;;;;;;19.76;99.35;100631.63;4960988;28;20192;-79
2022/08/16 04:35:45;;;;;;;28.83;25.93;;;;;;;19.78;99.21;100627.28;4967993;28;20562;-77
2022/08/16 04:38:11;;;;;;;29.23;26.23;;;;;;;19.81;99.27;100626.34;4981277;28;20184;-78
2022/08/16 04:40:42;;;;;;;30.30;27.40;;;;;;;19.78;99.26;100631.59;4974389;28;20209;-79
2022/08/16 04:43:14;;;;;;;29.27;26.37;;;;;;;19.79;99.17;100625.50;4963970;28;20227;-78
2022/08/16 04:45:41;;;;;;;28.53;25.57;;;;;;;19.84;98.70;100624.53;4966364;28;20267;-80
2022/08/16 04:48:11;;;;;;;27.50;24.83;;;;;;;19.85;98.69;100623.63;4958176;28;20282;-79
2022/08/16 04:50:48;;;;;;;28.87;25.97;;;;;;;19.89;98.06;100627.88;4979195;28;20223;-78
2022/08/16 04:53:16;;;;;;;28.63;25.57;;;;;;;19.93;97.58;100624.31;4971453;28;20184;-78
2022/08/16 04:55:44;;;;;;;29.60;26.70;;;;;;;19.90;97.72;100626.16;4985020;28;20200;-78
2022/08/16 04:58:09;;;;;;;31.90;28.90;;;;;;;19.88;98.23;100631.38;4974660;28;20196;-78
2022/08/16 05:00:36;;;;;;;32.27;29.03;;;;;;;19.89;98.29;100634.81;4978815;28;20304;-77
2022/08/16 05:03:12;;;;;;;33.63;30.27;;;;;;;19.91;98.01;100628.72;4983077;28;20188;-78
2022/08/16 05:05:44;;;;;;;32.73;29.40;;;;;;;19.93;97.25;100628.66;4970224;28;20199;-78
2022/08/16 05:08:11;;;;;;;32.77;29.37;;;;;;;19.99;97.48;100631.16;4965280;28;20188;-78
2022/08/16 05:10:42;;;;;;;30.87;27.73;;;;;;;20.06;96.98;100633.56;4985650;28;20585;-78
2022/08/16 05:13:08;;;;;;;31.33;28.23;;;;;;;20.11;96.58;100631.75;4986728;28;20196;-77
2022/08/16 05:15:34;;;;;;;32.37;29.17;;;;;;;20.13;96.56;100634.31;4961893;28;20188;-79
2022/08/16 05:18:04;;;;;;;33.60;30.00;;;;;;;20.13;96.16;100635.16;4968276;28;20196;-78
2022/08/16 05:20:35;;;;;;;33.57;30.13;;;;;;;20.16;96.17;100642.03;4953000;28;20274;-78
2022/08/16 05:23:02;;;;;;;31.60;28.33;;;;;;;20.18;96.77;100645.47;4984098;28;20188;-78
2022/08/16 05:25:28;;;;;;;32.50;29.30;;;;;;;20.17;96.85;100641.16;4987399;28;20195;-78
2022/08/16 05:27:56;;;;;;;33.67;30.37;;;;;;;20.30;96.86;100643.44;4950065;28;20256;-77
2022/08/16 05:30:23;;;;;;;33.20;29.93;;;;;;;20.28;96.96;100645.22;4955244;28;20208;-78
2022/08/16 05:32:48;;;;;;;34.50;31.00;;;;;;;20.24;97.09;100655.72;4971242;28;20600;-78
2022/08/16 05:35:15;;;;;;;35.87;32.33;;;;;;;20.15;97.44;100655.94;4961384;28;20727;-78
2022/08/16 05:37:54;;;;;;;38.97;34.90;;;;;;;20.14;97.88;100656.84;4974849;28;20270;-78
2022/08/16 05:40:20;;;;;;;37.73;33.97;;;;;;;20.22;97.73;100658.34;4943929;28;20223;-79
2022/08/16 05:42:46;;;;;;;38.83;34.67;;;;;;;20.30;96.90;100671.19;4978793;28;20917;-79
2022/08/16 05:45:12;;;;;;;40.87;36.60;;;;;;;20.26;97.22;100667.81;4963670;28;20185;-78
2022/08/16 05:47:39;;;;;;;40.00;36.00;;;;;;;20.31;97.04;100671.16;4982005;28;20188;-79
2022/08/16 05:50:06;;;;;;;41.37;36.60;;;;;;;20.22;96.90;100679.16;4961935;28;20304;-78
2022/08/16 05:52:33;;;;;;;41.80;36.67;;;;;;;20.29;96.56;100685.97;4972702;28;20280;-78
2022/08/16 05:55:00;;;;;;;41.83;37.63;;;;;;;20.30;96.88;100685.06;4967181;28;20203;-79
2022/08/16 05:57:26;;;;;;;41.10;36.80;;;;;;;20.40;96.85;100685.72;4975218;28;20176;-78
2022/08/16 05:59:52;;;;;;;41.40;37.30;;;;;;;20.48;96.43;100688.97;4973351;28;20262;-78
2022/08/16 06:02:18;;;;;;;39.17;35.17;;;;;;;20.56;95.25;100682.72;4971372;28;20208;-78
2022/08/16 06:04:44;;;;;;;40.23;36.03;;;;;;;20.66;94.88;100681.59;4968958;28;20193;-78
2022/08/16 06:07:13;;;;;;;39.50;35.23;;;;;;;20.93;93.83;100687.91;4973345;28;20645;-79
2022/08/16 06:09:42;;;;;;;38.87;34.83;;;;;;;21.15;93.14;100683.88;4948517;28;20215;-78
2022/08/16 06:12:08;;;;;;;37.23;33.43;;;;;;;21.47;91.14;100687.28;4986090;28;20208;-78
2022/08/16 06:14:34;;;;;;;37.47;33.37;;;;;;;21.41;90.63;100692.69;4968759;28;20184;-79
2022/08/16 06:17:00;;;;;;;35.30;31.70;;;;;;;21.41;91.05;100694.44;4976765;28;20193;-79
2022/08/16 06:19:25;;;;;;;35.27;31.73;;;;;;;21.39;90.93;100694.50;4942444;28;20627;-79
2022/08/16 06:21:59;;;;;;;34.53;30.90;;;;;;;21.42;91.06;100689.19;4951181;28;20591;-80
2022/08/16 06:24:25;;;;;;;34.37;31.03;;;;;;;21.47;90.32;100687.28;4955590;28;20327;-79
2022/08/16 06:26:51;;;;;;;35.57;31.90;;;;;;;21.68;90.49;100686.72;4946384;28;20227;-79
2022/08/16 06:29:16;;;;;;;35.73;32.03;;;;;;;22.09;89.11;100681.19;4965851;28;20192;-79
2022/08/16 06:31:43;;;;;;;33.93;30.43;;;;;;;22.30;88.67;100690.94;4965031;28;20340;-80
2022/08/16 06:34:09;;;;;;;33.17;29.77;;;;;;;22.37;88.25;100691.63;4968052;28;20181;-79
2022/08/16 06:36:35;;;;;;;32.97;29.67;;;;;;;22.38;87.19;100697.69;4975975;28;20247;-79
2022/08/16 06:39:12;;;;;;;30.00;27.07;;;;;;;22.34;86.93;100694.34;4964077;28;20238;-79
2022/08/16 06:41:59;;;;;;;31.43;28.13;;;;;;;22.46;86.61;100703.59;4976332;28;20228;-80
2022/08/16 06:44:50;;;;;;;29.47;26.63;;;;;;;22.55;86.56;100705.91;4971834;28;20204;-79
2022/08/16 06:47:36;;;;;;;27.70;24.73;;;;;;;22.90;84.50;100708.22;4970410;28;20271;-79
2022/08/16 06:50:02;;;;;;;29.20;26.20;;;;;;;22.81;84.89;100713.75;4970932;28;20223;-80
2022/08/16 06:52:36;;;;;;;28.93;26.13;;;;;;;22.53;84.81;100718.13;4946069;28;20274;-80
2022/08/16 06:55:07;;;;;;;28.10;25.37;;;;;;;22.66;84.11;100714.25;4966495;28;20192;-79
2022/08/16 06:57:33;;;;;;;26.47;23.83;;;;;;;22.92;82.47;100716.88;4959051;28;20198;-80
2022/08/16 06:59:58;;;;;;;29.40;26.27;;;;;;;22.87;82.97;100713.53;4985165;28;20212;-79
2022/08/16 07:02:31;;;;;;;28.93;25.80;;;;;;;23.13;82.78;100713.53;4989999;28;20220;-79
2022/08/16 07:04:57;;;;;;;24.47;21.97;;;;;;;23.05;81.62;100712.91;4974576;28;20188;-79
2022/08/16 07:07:22;;;;;;;26.63;23.93;;;;;;;23.13;81.26;100708.31;4954284;28;20227;-78
2022/08/16 07:09:48;;;;;;;25.60;22.93;;;;;;;23.19;81.09;100718.56;4994864;28;20197;-79
2022/08/16 07:12:14;;;;;;;26.03;23.30;;;;;;;23.44;79.42;100709.00;4968610;28;20216;-79
2022/08/16 07:14:43;;;;;;;25.73;22.77;;;;;;;23.51;80.36;100713.94;4981573;28;20304;-79
2022/08/16 07:17:12;;;;;;;22.50;20.50;;;;;;;23.38;78.85;100712.66;4964033;28;20220;-78
2022/08/16 07:19:41;;;;;;;24.87;22.50;;;;;;;23.31;79.67;100713.81;4986474;28;20189;-79
2022/08/16 07:22:07;;;;;;;25.17;22.70;;;;;;;23.31;80.54;100721.63;4972198;28;20239;-79
2022/08/16 07:24:34;;;;;;;22.43;20.23;;;;;;;23.28;80.28;100721.75;4974730;28;20200;-80
2022/08/16 07:27:03;;;;;;;22.53;20.40;;;;;;;23.10;80.67;100722.31;4933621;28;20314;-77
2022/08/16 07:29:29;;;;;;;23.10;20.90;;;;;;;23.13;80.89;100730.06;4985001;28;20610;-79
2022/08/16 07:31:56;;;;;;;23.37;21.27;;;;;;;23.10;81.19;100730.16;4978028;28;20210;-78
2022/08/16 07:34:21;;;;;;;22.33;20.17;;;;;;;23.15;81.81;100735.25;4977261;28;20244;-79
2022/08/16 07:36:47;;;;;;;19.90;18.00;;;;;;;23.06;79.67;100735.56;4957675;28;20631;-79
2022/08/16 07:39:13;;;;;;;19.53;17.53;;;;;;;23.11;79.65;100738.88;4969466;28;20255;-78
2022/08/16 07:41:40;;;;;;;18.87;17.07;;;;;;;22.97;78.89;100748.91;4983977;28;20699;-78
2022/08/16 07:44:07;;;;;;;18.43;16.47;;;;;;;23.07;78.40;100742.47;4973143;28;20245;-79
2022/08/16 07:46:33;;;;;;;18.07;16.30;;;;;;;23.39;77.94;100747.50;4990240;28;20193;-79
2022/08/16 07:49:04;;;;;;;16.10;14.60;;;;;;;23.92;76.26;100746.50;4972090;28;20200;-79
2022/08/16 07:51:35;;;;;;;15.93;14.27;;;;;;;24.77;73.09;100737.09;4992476;28;20315;-79
2022/08/16 07:54:03;;;;;;;19.27;17.10;;;;;;;24.82;72.49;100743.00;4983311;28;20192;-79
2022/08/16 07:56:29;;;;;;;19.48;17.20;;;;;;;24.66;71.63;100742.75;4992344;28;20185;-79
2022/08/16 07:58:56;;;;;;;17.50;16.00;;;;;;;25.08;71.56;100740.13;4979284;28;20197;-79
2022/08/16 08:01:29;;;;;;;14.70;13.07;;;;;;;25.59;69.90;100741.44;4968926;28;20212;-79
2022/08/16 08:03:57;;;;;;;12.38;11.27;;;;;;;25.79;67.82;100741.41;4971374;28;20194;-78
2022/08/16 08:06:29;;;;;;;11.88;10.73;;;;;;;25.76;68.32;100741.56;4959956;28;20737;-79
2022/08/16 08:09:00;;;;;;;12.40;11.13;;;;;;;25.71;68.71;100740.06;4971286;28;20199;-79
2022/08/16 08:11:27;;;;;;;11.63;10.45;;;;;;;25.63;68.62;100748.28;4991889;28;20208;-78
2022/08/16 08:13:55;;;;;;;12.55;11.40;;;;;;;25.42;68.98;100750.97;4956813;28;20319;-78
2022/08/16 08:16:21;;;;;;;12.90;11.70;;;;;;;25.41;69.29;100760.59;4972805;28;20199;-78
2022/08/16 08:18:48;;;;;;;16.65;12.65;;;;;;;25.06;68.75;100752.47;4996626;28;20623;-78
2022/08/16 08:21:18;;;;;;;14.10;12.65;;;;;;;25.56;67.52;100759.94;4975224;28;20243;-78
2022/08/16 08:23:45;;;;;;;14.32;12.65;;;;;;;25.75;66.42;100760.88;4987947;28;20224;-80
2022/08/16 08:26:10;;;;;;;13.23;11.73;;;;;;;25.99;66.54;100766.81;4962791;28;20224;-78
2022/08/16 08:28:36;;;;;;;11.95;10.75;;;;;;;26.70;64.02;100765.22;4969237;28;20270;-78
2022/08/16 08:31:04;;;;;;;11.77;10.57;;;;;;;26.98;63.63;100764.75;4990076;28;20204;-78
2022/08/16 08:33:36;;;;;;;10.38;9.38;;;;;;;27.37;59.55;100763.63;4978946;28;20199;-79
2022/08/16 08:36:06;;;;;;;11.90;9.48;;;;;;;26.84;59.63;100775.91;4974300;28;20210;-78
2022/08/16 08:38:33;;;;;;;10.75;9.70;;;;;;;26.69;60.58;100776.66;4960776;28;20176;-80
2022/08/16 08:40:59;;;;;;;10.73;8.32;;;;;;;27.03;58.48;100771.44;4951829;28;20216;-80
2022/08/16 08:43:25;;;;;;;11.40;8.40;;;;;;;27.45;58.30;100774.59;4962315;28;20210;-79
2022/08/16 08:45:55;;;;;;;8.90;7.38;;;;;;;27.90;56.01;100774.06;4965168;28;20185;-79
2022/08/16 08:48:26;;;;;;;9.85;7.28;;;;;;;28.26;54.92;100762.38;4973681;28;20184;-79
2022/08/16 08:50:52;;;;;;;10.13;7.32;;;;;;;28.45;54.71;100759.59;4962235;28;20196;-80
2022/08/16 08:53:18;;;;;;;9.27;7.50;;;;;;;28.78;55.08;100774.41;4964601;28;20222;-80
2022/08/16 08:55:48;;;;;;;8.55;7.75;;;;;;;28.98;55.55;100770.69;4962498;28;20204;-80
2022/08/16 08:58:15;;;;;;;8.73;7.25;;;;;;;29.20;53.75;100776.41;4941030;29;20193;-80
2022/08/16 09:01:03;;;;;;;9.77;8.00;;;;;;;29.23;53.78;100774.44;4943851;28;20224;-80
2022/08/16 09:03:29;;;;;;;8.80;7.88;;;;;;;29.15;54.31;100778.47;4930221;28;20226;-80
2022/08/16 09:05:55;;;;;;;11.60;8.50;;;;;;;28.59;52.76;100784.28;4976890;28;20201;-79
2022/08/16 09:08:20;;;;;;;9.75;8.75;;;;;;;28.43;53.79;100785.22;4950166;28;20219;-79
2022/08/16 09:10:55;;;;;;;10.75;9.68;;;;;;;27.79;54.54;100795.66;4959274;28;20180;-79
2022/08/16 09:13:23;;;;;;;10.40;9.18;;;;;;;27.40;56.15;100797.66;4942070;29;20305;-79
2022/08/16 09:15:56;;;;;;;9.98;9.00;;;;;;;27.63;55.49;100793.88;4952229;28;20180;-78
2022/08/16 09:18:23;;;;;;;9.65;8.75;;;;;;;28.02;54.49;100787.44;4944627;28;20181;-79
2022/08/16 09:20:52;;;;;;;10.10;8.48;;;;;;;28.60;52.92;100782.50;4979516;28;20196;-78
2022/08/16 09:23:19;;;;;;;11.88;8.52;;;;;;;28.96;51.98;100775.16;4969970;28;20266;-78
2022/08/16 09:25:45;;;;;;;9.30;8.32;;;;;;;29.02;51.68;100778.31;4983646;28;20203;-78
2022/08/16 09:28:14;;;;;;;9.77;7.45;;;;;;;28.86;51.76;100784.50;4936092;28;20228;-78
2022/08/16 09:30:45;;;;;;;11.93;7.50;;;;;;;29.62;51.43;100779.19;4964890;28;20196;-77
2022/08/16 09:33:17;;;;;;;8.20;7.15;;;;;;;30.15;49.33;100783.88;4937378;28;20647;-77
2022/08/16 09:35:44;;;;;;;8.90;7.63;;;;;;;30.17;49.56;100781.03;4976313;28;20598;-78
2022/08/16 09:38:12;;;;;;;8.00;7.20;;;;;;;30.64;49.70;100775.41;4973035;28;20223;-78
2022/08/16 09:40:43;;;;;;;8.20;7.03;;;;;;;30.28;47.39;100788.31;4972547;28;20212;-77
2022/08/16 09:43:14;;;;;;;9.65;7.07;;;;;;;29.67;49.06;100785.91;4969679;28;20200;-80
2022/08/16 09:45:40;;;;;;;10.05;6.72;;;;;;;29.75;48.16;100790.72;4973721;28;20199;-79
2022/08/16 09:48:11;;;;;;;7.75;7.05;;;;;;;29.74;48.63;100792.50;4979105;28;20204;-79
2022/08/16 09:50:37;;;;;;;7.35;6.40;;;;;;;30.04;46.35;100793.31;4980554;28;20193;-79
2022/08/16 09:53:06;;;;;;;7.90;7.25;;;;;;;30.95;45.84;100792.81;4974316;28;20207;-78
2022/08/16 09:55:31;;;;;;;9.00;6.70;;;;;;;30.86;44.90;100793.41;4980150;28;20192;-78
2022/08/16 09:57:57;;;;;;;7.47;5.65;;;;;;;30.49;44.78;100802.84;4958706;28;20190;-77
2022/08/16 10:00:25;;;;;;;8.43;6.65;;;;;;;29.95;45.76;100800.94;4981038;28;21020;-78
2022/08/16 10:02:52;;;;;;;7.38;5.95;;;;;;;30.22;47.02;100793.97;4994119;28;20758;-78
2022/08/16 10:05:18;;;;;;;7.57;6.32;;;;;;;30.75;46.86;100796.75;4953143;28;20220;-78
2022/08/16 10:07:51;;;;;;;6.57;5.93;;;;;;;30.67;44.64;100796.41;4948142;28;20660;-79
2022/08/16 10:10:21;;;;;;;7.20;6.10;;;;;;;31.16;44.49;100794.06;4980001;28;20181;-77
2022/08/16 10:15:34;;;;;;;7.50;6.07;;;;;;;31.96;44.22;100781.50;4983677;28;20192;-77
2022/08/16 10:18:06;;;;;;;7.57;6.47;;;;;;;32.25;43.71;100786.44;4977243;28;20180;-78
2022/08/16 10:20:42;;;;;;;6.07;5.53;;;;;;;32.03;42.27;100782.75;4959449;28;20578;-78
2022/08/16 10:23:12;;;;;;;6.90;5.75;;;;;;;29.82;44.56;100798.19;4928254;28;20202;-77
2022/08/16 10:25:40;;;;;;;7.30;6.55;;;;;;;29.53;46.57;100804.31;4969887;28;20196;-80
2022/08/16 10:28:07;;;;;;;8.52;6.90;;;;;;;29.59;47.70;100797.84;4956706;28;20192;-80
2022/08/16 10:30:33;;;;;;;8.40;7.60;;;;;;;29.20;49.87;100797.53;4979318;28;20196;-77
2022/08/16 10:32:58;;;;;;;9.70;7.20;;;;;;;28.88;52.04;100803.75;4969206;28;20235;-78
2022/08/16 10:35:24;;;;;;;9.25;8.30;;;;;;;28.52;52.24;100803.16;4947331;28;20191;-80
2022/08/16 10:37:50;;;;;;;9.13;7.75;;;;;;;28.80;52.16;100804.19;4977465;28;20193;-80
2022/08/16 10:40:17;;;;;;;9.27;7.55;;;;;;;28.42;51.65;100804.59;4960756;28;20219;-79
2022/08/16 10:42:42;;;;;;;9.23;7.35;;;;;;;28.40;52.13;100807.31;4942666;28;20275;-79
2022/08/16 10:45:08;;;;;;;7.97;7.28;;;;;;;28.90;50.61;100800.09;4972216;28;20192;-79
2022/08/16 10:47:34;;;;;;;9.00;6.72;;;;;;;29.20;50.80;100802.81;4975782;28;20189;-80
2022/08/16 10:50:00;;;;;;;7.10;5.20;;;;;;;29.50;45.30;100799.22;4973622;28;20220;-78
2022/08/16 10:52:26;;;;;;;5.80;5.28;;;;;;;29.93;45.90;100803.66;4951815;28;20575;-79
2022/08/16 10:54:51;;;;;;;5.47;4.97;;;;;;;30.46;44.11;100808.31;4958964;28;20193;-79
2022/08/16 10:57:17;;;;;;;6.72;4.72;;;;;;;30.89;43.85;100804.63;4963541;28;20248;-80
2022/08/16 10:59:42;;;;;;;5.40;4.70;;;;;;;31.40;43.32;100803.03;4973037;28;20283;-80
2022/08/16 11:02:09;;;;;;;5.10;4.70;;;;;;;31.49;42.28;100805.06;4973788;28;20221;-79
2022/08/16 11:04:35;;;;;;;5.38;4.97;;;;;;;30.96;42.64;100815.66;4966790;28;20215;-79
2022/08/16 11:07:00;;;;;;;5.70;5.20;;;;;;;30.78;43.81;100803.63;4977144;28;20670;-79
2022/08/16 11:09:26;;;;;;;6.30;5.72;;;;;;;31.35;43.43;100811.28;4966185;28;20184;-79
2022/08/16 11:11:51;;;;;;;7.95;6.72;;;;;;;31.09;44.12;100806.00;4969799;28;20204;-79
2022/08/16 11:14:18;;;;;;;6.32;5.72;;;;;;;31.79;43.06;100818.91;4951043;28;20199;-80
2022/08/16 11:16:44;;;;;;;7.50;5.90;;;;;;;31.49;42.60;100819.16;4976251;28;20200;-80
2022/08/16 11:19:09;;;;;;;6.95;5.80;;;;;;;31.87;42.30;100821.88;4967674;28;20196;-80